createdAt,value
2023-08-10T00:00:54.706Z,0.00
2023-08-10T00:01:54.832Z,0.00
2023-08-10T00:02:55.082Z,0.00
2023-08-10T00:03:55.465Z,0.00
2023-08-10T00:04:55.374Z,0.00
2023-08-10T00:05:55.578Z,0.00
2023-08-10T00:06:55.755Z,0.00
2023-08-10T00:07:55.910Z,0.00
2023-08-10T00:08:56.102Z,0.00
2023-08-10T00:09:56.313Z,0.00
2023-08-10T00:10:56.490Z,0.00
2023-08-10T00:11:56.703Z,0.00
2023-08-10T00:12:56.819Z,0.00
2023-08-10T00:13:57.024Z,0.00
2023-08-10T00:14:57.199Z,0.00
2023-08-10T00:15:57.439Z,0.00
2023-08-10T00:16:57.598Z,0.00
2023-08-10T00:17:57.828Z,0.00
2023-08-10T00:18:57.960Z,0.00
2023-08-10T00:19:58.155Z,0.00
2023-08-10T00:20:58.314Z,0.00
2023-08-10T00:21:58.526Z,0.00
2023-08-10T00:22:58.693Z,0.00
2023-08-10T00:23:58.851Z,0.00
2023-08-10T00:24:59.088Z,0.00
2023-08-10T00:25:59.212Z,0.00
2023-08-10T00:26:59.491Z,0.00
2023-08-10T00:27:59.583Z,0.00
2023-08-10T00:28:59.746Z,0.00
2023-08-10T00:29:59.947Z,0.00
2023-08-10T00:31:00.200Z,0.00
2023-08-10T00:32:00.307Z,0.00
2023-08-10T00:33:00.499Z,0.00
2023-08-10T00:34:00.633Z,0.00
2023-08-10T00:35:00.818Z,0.00
2023-08-10T00:36:01.070Z,0.00
2023-08-10T00:37:01.203Z,0.00
2023-08-10T00:38:01.363Z,0.00
2023-08-10T00:39:01.539Z,0.00
2023-08-10T00:40:01.749Z,0.00
2023-08-10T00:41:01.982Z,0.00
2023-08-10T00:42:02.094Z,0.00
2023-08-10T00:43:02.310Z,0.00
2023-08-10T00:44:02.480Z,0.00
2023-08-10T00:45:02.651Z,0.00
2023-08-10T00:46:02.977Z,0.00
2023-08-10T00:47:03.030Z,0.00
2023-08-10T00:48:03.233Z,0.00
2023-08-10T00:49:03.402Z,0.00
2023-08-10T00:50:03.596Z,0.00
2023-08-10T00:51:03.758Z,0.00
2023-08-10T00:52:04.231Z,0.00
2023-08-10T00:53:04.125Z,0.00
2023-08-10T00:54:04.310Z,0.00
2023-08-10T00:55:04.455Z,0.00
2023-08-10T00:56:04.663Z,0.00
2023-08-10T00:57:04.829Z,0.00
2023-08-10T00:58:05.019Z,0.00
2023-08-10T00:59:05.182Z,0.00
2023-08-10T01:00:05.382Z,0.00
2023-08-10T01:01:05.603Z,0.00
2023-08-10T01:02:05.937Z,0.00
2023-08-10T01:03:06.043Z,0.00
2023-08-10T01:04:06.163Z,0.00
2023-08-10T01:05:06.409Z,0.00
2023-08-10T01:06:06.574Z,0.00
2023-08-10T01:07:06.740Z,0.00
2023-08-10T01:08:06.911Z,0.00
2023-08-10T01:09:07.101Z,0.00
2023-08-10T01:10:07.262Z,0.00
2023-08-10T01:11:07.474Z,0.00
2023-08-10T01:12:07.988Z,0.00
2023-08-10T01:13:07.855Z,0.00
2023-08-10T01:14:07.997Z,0.00
2023-08-10T01:15:08.204Z,0.00
2023-08-10T01:16:08.426Z,0.00
2023-08-10T01:17:08.594Z,0.00
2023-08-10T01:18:08.768Z,0.00
2023-08-10T01:19:08.933Z,0.00
2023-08-10T01:20:09.092Z,0.00
2023-08-10T01:21:09.334Z,0.00
2023-08-10T01:22:09.493Z,0.00
2023-08-10T01:23:09.712Z,0.00
2023-08-10T01:24:09.871Z,0.00
2023-08-10T01:25:10.070Z,0.00
2023-08-10T01:26:10.315Z,0.00
2023-08-10T01:27:10.458Z,0.00
2023-08-10T01:28:10.612Z,0.00
2023-08-10T01:29:10.808Z,0.00
2023-08-10T01:30:11.039Z,0.00
2023-08-10T01:31:11.209Z,0.00
2023-08-10T01:32:11.435Z,0.00
2023-08-10T01:33:11.568Z,0.00
2023-08-10T01:34:11.767Z,0.00
2023-08-10T01:35:11.951Z,0.00
2023-08-10T01:36:12.152Z,0.00
2023-08-10T01:37:12.309Z,0.00
2023-08-10T01:38:12.514Z,0.00
2023-08-10T01:39:12.688Z,0.00
2023-08-10T01:40:12.909Z,0.00
2023-08-10T01:41:13.092Z,0.00
2023-08-10T01:42:13.214Z,0.00
2023-08-10T01:43:13.460Z,0.00
2023-08-10T01:44:13.596Z,0.00
2023-08-10T01:45:13.939Z,0.00
2023-08-10T01:46:14.029Z,0.00
2023-08-10T01:47:14.127Z,0.00
2023-08-10T01:48:14.328Z,0.00
2023-08-10T01:49:14.482Z,0.00
2023-08-10T01:50:14.660Z,0.00
2023-08-10T01:51:14.847Z,0.00
2023-08-10T01:52:15.014Z,0.00
2023-08-10T01:53:15.198Z,0.00
2023-08-10T01:54:15.442Z,0.00
2023-08-10T01:55:15.531Z,0.00
2023-08-10T01:56:15.769Z,0.00
2023-08-10T01:57:15.883Z,0.00
2023-08-10T01:58:16.089Z,0.00
2023-08-10T01:59:16.282Z,0.00
2023-08-10T02:00:16.457Z,0.00
2023-08-10T02:01:16.651Z,0.00
2023-08-10T02:02:16.816Z,0.00
2023-08-10T02:03:17.032Z,0.00
2023-08-10T02:04:17.241Z,0.00
2023-08-10T02:05:17.392Z,0.00
2023-08-10T02:06:17.594Z,0.00
2023-08-10T02:07:17.750Z,0.00
2023-08-10T02:08:17.978Z,0.00
2023-08-10T02:09:18.118Z,0.00
2023-08-10T02:10:18.326Z,0.00
2023-08-10T02:11:18.561Z,0.00
2023-08-10T02:12:18.719Z,0.00
2023-08-10T02:13:18.868Z,0.00
2023-08-10T02:14:19.078Z,0.00
2023-08-10T02:15:19.266Z,0.00
2023-08-10T02:16:19.480Z,0.00
2023-08-10T02:17:19.668Z,0.00
2023-08-10T02:18:19.839Z,0.00
2023-08-10T02:19:20.054Z,0.00
2023-08-10T02:20:20.200Z,0.00
2023-08-10T02:21:20.385Z,0.00
2023-08-10T02:22:20.576Z,0.00
2023-08-10T02:23:20.749Z,0.00
2023-08-10T02:24:20.955Z,0.00
2023-08-10T02:25:21.176Z,0.00
2023-08-10T02:26:21.324Z,0.00
2023-08-10T02:27:21.514Z,0.00
2023-08-10T02:28:21.959Z,0.00
2023-08-10T02:29:21.853Z,0.00
2023-08-10T02:30:22.041Z,0.00
2023-08-10T02:31:22.254Z,0.00
2023-08-10T02:32:22.414Z,0.00
2023-08-10T02:33:22.578Z,0.00
2023-08-10T02:34:22.726Z,0.00
2023-08-10T02:35:22.944Z,0.00
2023-08-10T02:36:23.114Z,0.00
2023-08-10T02:37:23.321Z,0.00
2023-08-10T02:38:23.570Z,0.00
2023-08-10T02:39:23.698Z,0.00
2023-08-10T02:40:23.861Z,0.00
2023-08-10T02:41:24.070Z,0.00
2023-08-10T02:42:24.238Z,0.00
2023-08-10T02:43:24.436Z,0.00
2023-08-10T02:44:24.591Z,0.00
2023-08-10T02:45:24.742Z,0.00
2023-08-10T02:46:24.946Z,0.00
2023-08-10T02:47:25.132Z,0.00
2023-08-10T02:48:25.351Z,0.00
2023-08-10T02:49:25.508Z,0.00
2023-08-10T02:50:25.708Z,0.00
2023-08-10T02:51:25.891Z,0.00
2023-08-10T02:52:26.104Z,0.00
2023-08-10T02:53:26.300Z,0.00
2023-08-10T02:54:26.493Z,0.00
2023-08-10T02:55:26.644Z,0.00
2023-08-10T02:56:26.816Z,0.00
2023-08-10T02:57:27.005Z,0.00
2023-08-10T02:58:27.213Z,0.00
2023-08-10T02:59:27.398Z,0.00
2023-08-10T03:00:27.582Z,0.00
2023-08-10T03:01:27.801Z,0.00
2023-08-10T03:02:27.954Z,0.00
2023-08-10T03:03:28.155Z,0.00
2023-08-10T03:04:28.343Z,0.00
2023-08-10T03:05:28.525Z,0.00
2023-08-10T03:06:28.713Z,0.00
2023-08-10T03:07:28.969Z,0.00
2023-08-10T03:08:29.078Z,0.00
2023-08-10T03:09:29.234Z,0.00
2023-08-10T03:10:29.432Z,0.00
2023-08-10T03:11:29.618Z,0.00
2023-08-10T03:12:29.838Z,0.00
2023-08-10T03:13:30.023Z,0.00
2023-08-10T03:14:30.182Z,0.00
2023-08-10T03:15:30.410Z,0.00
2023-08-10T03:16:30.584Z,0.00
2023-08-10T03:17:30.763Z,0.00
2023-08-10T03:18:30.924Z,0.00
2023-08-10T03:19:31.082Z,4.00
2023-08-10T03:20:31.307Z,4.00
2023-08-10T03:21:31.471Z,0.00
2023-08-10T03:22:31.642Z,0.00
2023-08-10T03:23:31.866Z,4.00
2023-08-10T03:24:32.062Z,4.00
2023-08-10T03:25:32.247Z,4.00
2023-08-10T03:26:32.432Z,4.00
2023-08-10T03:27:32.692Z,4.00
2023-08-10T03:28:32.803Z,4.00
2023-08-10T03:29:32.970Z,4.00
2023-08-10T03:30:33.182Z,8.00
2023-08-10T03:31:33.388Z,4.00
2023-08-10T03:32:33.585Z,8.00
2023-08-10T03:33:33.731Z,8.00
2023-08-10T03:34:33.919Z,8.00
2023-08-10T03:35:34.117Z,8.00
2023-08-10T03:36:34.341Z,12.00
2023-08-10T03:37:34.475Z,12.00
2023-08-10T03:38:34.653Z,16.00
2023-08-10T03:39:34.814Z,16.00
2023-08-10T03:40:35.012Z,16.00
2023-08-10T03:41:35.221Z,16.00
2023-08-10T03:42:35.354Z,20.00
2023-08-10T03:43:35.546Z,20.00
2023-08-10T03:44:35.735Z,20.00
2023-08-10T03:45:35.918Z,24.00
2023-08-10T03:46:36.130Z,28.00
2023-08-10T03:47:36.276Z,28.00
2023-08-10T03:48:36.434Z,28.00
2023-08-10T03:49:36.569Z,32.00
2023-08-10T03:50:36.745Z,32.00
2023-08-10T03:51:36.930Z,36.00
2023-08-10T03:52:37.106Z,36.00
2023-08-10T03:53:37.280Z,40.00
2023-08-10T03:54:37.479Z,36.00
2023-08-10T03:55:37.656Z,44.00
2023-08-10T03:56:37.856Z,40.00
2023-08-10T03:57:38.064Z,48.00
2023-08-10T03:58:38.213Z,48.00
2023-08-10T03:59:38.387Z,48.00
2023-08-10T04:00:38.608Z,44.00
2023-08-10T04:01:38.764Z,48.00
2023-08-10T04:02:38.936Z,48.00
2023-08-10T04:03:39.218Z,48.00
2023-08-10T04:04:39.305Z,48.00
2023-08-10T04:05:39.511Z,48.00
2023-08-10T04:06:39.671Z,52.00
2023-08-10T04:07:39.884Z,52.00
2023-08-10T04:08:40.081Z,56.00
2023-08-10T04:09:40.242Z,56.00
2023-08-10T04:10:40.453Z,60.00
2023-08-10T04:11:40.625Z,64.00
2023-08-10T04:12:40.787Z,68.00
2023-08-10T04:13:40.958Z,68.00
2023-08-10T04:14:41.199Z,68.00
2023-08-10T04:15:41.307Z,76.00
2023-08-10T04:16:41.514Z,84.00
2023-08-10T04:17:41.724Z,92.00
2023-08-10T04:18:41.828Z,96.00
2023-08-10T04:19:42.045Z,104.00
2023-08-10T04:20:42.223Z,112.00
2023-08-10T04:21:42.375Z,108.00
2023-08-10T04:22:42.595Z,112.00
2023-08-10T04:23:42.743Z,116.00
2023-08-10T04:24:42.980Z,116.00
2023-08-10T04:25:43.135Z,128.00
2023-08-10T04:26:43.292Z,132.00
2023-08-10T04:27:43.482Z,140.00
2023-08-10T04:28:43.642Z,144.00
2023-08-10T04:29:43.872Z,144.00
2023-08-10T04:30:44.021Z,144.00
2023-08-10T04:31:44.201Z,148.00
2023-08-10T04:32:46.447Z,156.00
2023-08-10T04:33:44.583Z,156.00
2023-08-10T04:34:44.772Z,164.00
2023-08-10T04:35:45.020Z,168.00
2023-08-10T04:36:45.120Z,176.00
2023-08-10T04:37:45.301Z,176.00
2023-08-10T04:38:45.458Z,184.00
2023-08-10T04:39:45.691Z,188.00
2023-08-10T04:40:45.823Z,200.00
2023-08-10T04:41:46.023Z,208.00
2023-08-10T04:42:46.196Z,208.00
2023-08-10T04:43:46.384Z,216.00
2023-08-10T04:44:46.577Z,220.00
2023-08-10T04:45:46.714Z,228.00
2023-08-10T04:46:46.913Z,236.00
2023-08-10T04:47:47.143Z,236.00
2023-08-10T04:48:47.276Z,228.00
2023-08-10T04:49:47.482Z,224.00
2023-08-10T04:50:47.621Z,212.00
2023-08-10T04:51:47.834Z,208.00
2023-08-10T04:52:47.997Z,216.00
2023-08-10T04:53:48.194Z,220.00
2023-08-10T04:54:48.340Z,220.00
2023-08-10T04:55:48.514Z,224.00
2023-08-10T04:56:48.724Z,224.00
2023-08-10T04:57:48.887Z,220.00
2023-08-10T04:58:49.127Z,208.00
2023-08-10T04:59:49.256Z,192.00
2023-08-10T05:00:49.436Z,196.00
2023-08-10T05:01:49.632Z,212.00
2023-08-10T05:02:49.874Z,224.00
2023-08-10T05:03:50.182Z,220.00
2023-08-10T05:04:50.175Z,208.00
2023-08-10T05:05:50.363Z,220.00
2023-08-10T05:06:50.575Z,236.00
2023-08-10T05:07:50.751Z,244.00
2023-08-10T05:08:51.190Z,252.00
2023-08-10T05:10:51.316Z,276.00
2023-08-10T05:11:51.507Z,288.00
2023-08-10T05:12:51.698Z,300.00
2023-08-10T05:13:51.875Z,324.00
2023-08-10T05:14:52.071Z,332.00
2023-08-10T05:15:52.299Z,336.00
2023-08-10T05:16:52.445Z,340.00
2023-08-10T05:17:52.662Z,348.00
2023-08-10T05:18:52.852Z,352.00
2023-08-10T05:19:53.018Z,356.00
2023-08-10T05:20:53.150Z,364.00
2023-08-10T05:21:53.368Z,384.00
2023-08-10T05:22:53.535Z,396.00
2023-08-10T05:23:53.739Z,408.00
2023-08-10T05:24:53.914Z,424.00
2023-08-10T05:25:54.091Z,440.00
2023-08-10T05:26:54.277Z,444.00
2023-08-10T05:27:54.464Z,432.00
2023-08-10T05:28:54.666Z,436.00
2023-08-10T05:30:01.866Z,456.00
2023-08-10T05:30:55.037Z,472.00
2023-08-10T05:31:55.272Z,460.00
2023-08-10T05:32:55.472Z,448.00
2023-08-10T05:33:55.615Z,436.00
2023-08-10T05:34:55.780Z,424.00
2023-08-10T05:35:55.964Z,412.00
2023-08-10T05:36:56.130Z,404.00
2023-08-10T05:37:56.324Z,396.00
2023-08-10T05:38:56.504Z,404.00
2023-08-10T05:39:56.668Z,420.00
2023-08-10T05:40:56.873Z,428.00
2023-08-10T05:41:57.045Z,412.00
2023-08-10T05:42:57.250Z,376.00
2023-08-10T05:43:57.393Z,356.00
2023-08-10T05:44:57.602Z,356.00
2023-08-10T05:45:57.780Z,380.00
2023-08-10T05:46:57.984Z,388.00
2023-08-10T05:47:58.201Z,384.00
2023-08-10T05:48:58.401Z,392.00
2023-08-10T05:49:58.490Z,412.00
2023-08-10T05:50:58.719Z,424.00
2023-08-10T05:51:58.915Z,432.00
2023-08-10T05:53:00.003Z,440.00
2023-08-10T05:53:59.224Z,456.00
2023-08-10T05:54:59.406Z,456.00
2023-08-10T05:55:59.585Z,448.00
2023-08-10T05:57:00.506Z,444.00
2023-08-10T05:58:00.035Z,432.00
2023-08-10T05:59:00.133Z,428.00
2023-08-10T06:00:00.356Z,428.00
2023-08-10T06:01:00.536Z,428.00
2023-08-10T06:02:00.782Z,444.00
2023-08-10T06:03:01.457Z,476.00
2023-08-10T06:04:01.094Z,472.00
2023-08-10T06:05:01.254Z,464.00
2023-08-10T06:06:01.438Z,452.00
2023-08-10T06:07:01.614Z,460.00
2023-08-10T06:08:01.850Z,464.00
2023-08-10T06:09:01.980Z,504.00
2023-08-10T06:10:02.175Z,484.00
2023-08-10T06:11:02.363Z,492.00
2023-08-10T06:12:02.512Z,516.00
2023-08-10T06:13:02.722Z,512.00
2023-08-10T06:14:02.853Z,516.00
2023-08-10T06:15:03.037Z,528.00
2023-08-10T06:16:03.328Z,560.00
2023-08-10T06:17:03.492Z,604.00
2023-08-10T06:18:03.640Z,652.00
2023-08-10T06:19:03.802Z,692.00
2023-08-10T06:20:03.974Z,708.00
2023-08-10T06:21:04.194Z,712.00
2023-08-10T06:22:04.932Z,700.00
2023-08-10T06:23:04.536Z,672.00
2023-08-10T06:24:04.705Z,676.00
2023-08-10T06:25:04.903Z,680.00
2023-08-10T06:26:05.124Z,700.00
2023-08-10T06:27:05.248Z,708.00
2023-08-10T06:28:05.441Z,712.00
2023-08-10T06:29:05.658Z,696.00
2023-08-10T06:30:05.842Z,688.00
2023-08-10T06:31:06.030Z,688.00
2023-08-10T06:32:06.282Z,716.00
2023-08-10T06:33:06.351Z,768.00
2023-08-10T06:34:06.513Z,824.00
2023-08-10T06:35:06.700Z,864.00
2023-08-10T06:36:07.017Z,860.00
2023-08-10T06:37:07.056Z,860.00
2023-08-10T06:38:07.258Z,844.00
2023-08-10T06:39:07.476Z,872.00
2023-08-10T06:40:07.645Z,888.00
2023-08-10T06:41:07.809Z,860.00
2023-08-10T06:42:08.075Z,912.00
2023-08-10T06:43:08.209Z,916.00
2023-08-10T06:44:08.366Z,940.00
2023-08-10T06:45:08.543Z,916.00
2023-08-10T06:46:08.707Z,944.00
2023-08-10T06:47:08.947Z,976.00
2023-08-10T06:48:09.161Z,916.00
2023-08-10T06:49:09.274Z,884.00
2023-08-10T06:50:09.539Z,816.00
2023-08-10T06:51:09.657Z,840.00
2023-08-10T06:52:09.942Z,828.00
2023-08-10T06:53:10.022Z,804.00
2023-08-10T06:54:10.190Z,784.00
2023-08-10T06:55:10.377Z,796.00
2023-08-10T06:56:10.551Z,784.00
2023-08-10T06:57:10.747Z,764.00
2023-08-10T06:58:11.553Z,836.00
2023-08-10T07:01:11.560Z,784.00
2023-08-10T07:02:12.749Z,768.00
2023-08-10T07:03:11.851Z,780.00
2023-08-10T07:04:12.015Z,804.00
2023-08-10T07:05:12.184Z,832.00
2023-08-10T07:06:12.385Z,860.00
2023-08-10T07:07:12.551Z,928.00
2023-08-10T07:08:12.800Z,1008.00
2023-08-10T07:09:12.949Z,1092.00
2023-08-10T07:10:13.129Z,1156.00
2023-08-10T07:11:13.330Z,1204.00
2023-08-10T07:12:13.739Z,1180.00
2023-08-10T07:13:13.684Z,1068.00
2023-08-10T07:14:13.871Z,940.00
2023-08-10T07:15:14.028Z,876.00
2023-08-10T07:16:14.244Z,852.00
2023-08-10T07:17:14.498Z,860.00
2023-08-10T07:18:14.633Z,948.00
2023-08-10T07:19:14.759Z,964.00
2023-08-10T07:20:14.976Z,960.00
2023-08-10T07:21:15.139Z,992.00
2023-08-10T07:22:15.316Z,1020.00
2023-08-10T07:23:15.525Z,1032.00
2023-08-10T07:24:16.074Z,1008.00
2023-08-10T07:25:15.937Z,1020.00
2023-08-10T07:26:16.034Z,1012.00
2023-08-10T07:27:16.257Z,1016.00
2023-08-10T07:28:16.424Z,1012.00
2023-08-10T07:29:16.602Z,1036.00
2023-08-10T07:30:16.804Z,1032.00
2023-08-10T07:31:16.990Z,1092.00
2023-08-10T07:32:17.155Z,1096.00
2023-08-10T07:33:17.326Z,1144.00
2023-08-10T07:34:17.605Z,1208.00
2023-08-10T07:35:17.729Z,1240.00
2023-08-10T07:36:17.895Z,1260.00
2023-08-10T07:37:18.116Z,1224.00
2023-08-10T07:38:18.295Z,1168.00
2023-08-10T07:39:18.523Z,1076.00
2023-08-10T07:40:18.671Z,992.00
2023-08-10T07:41:18.805Z,964.00
2023-08-10T07:42:19.017Z,972.00
2023-08-10T07:43:19.182Z,1116.00
2023-08-10T07:44:19.392Z,1180.00
2023-08-10T07:45:19.658Z,1252.00
2023-08-10T07:46:19.834Z,1280.00
2023-08-10T07:47:19.981Z,1260.00
2023-08-10T07:48:20.177Z,1160.00
2023-08-10T07:49:20.349Z,1156.00
2023-08-10T07:50:20.519Z,1184.00
2023-08-10T07:51:20.702Z,1156.00
2023-08-10T07:52:20.870Z,1056.00
2023-08-10T07:53:21.075Z,912.00
2023-08-10T07:54:21.279Z,812.00
2023-08-10T07:55:21.423Z,760.00
2023-08-10T07:56:21.628Z,760.00
2023-08-10T07:57:21.793Z,756.00
2023-08-10T07:58:22.040Z,824.00
2023-08-10T07:59:22.191Z,792.00
2023-08-10T08:00:22.381Z,944.00
2023-08-10T08:01:22.593Z,920.00
2023-08-10T08:02:22.770Z,908.00
2023-08-10T08:03:23.124Z,904.00
2023-08-10T08:04:23.253Z,904.00
2023-08-10T08:05:23.308Z,916.00
2023-08-10T08:06:23.537Z,932.00
2023-08-10T08:07:23.660Z,948.00
2023-08-10T08:08:23.831Z,952.00
2023-08-10T08:09:24.063Z,956.00
2023-08-10T08:10:24.206Z,972.00
2023-08-10T08:11:24.411Z,988.00
2023-08-10T08:12:24.572Z,1000.00
2023-08-10T08:13:24.785Z,1024.00
2023-08-10T08:14:25.030Z,1032.00
2023-08-10T08:15:25.168Z,1032.00
2023-08-10T08:16:25.485Z,736.00
2023-08-10T08:17:25.563Z,768.00
2023-08-10T08:18:25.804Z,796.00
2023-08-10T08:19:25.917Z,860.00
2023-08-10T08:20:26.088Z,916.00
2023-08-10T08:21:26.282Z,936.00
2023-08-10T08:22:26.491Z,908.00
2023-08-10T08:23:26.661Z,916.00
2023-08-10T08:24:26.838Z,944.00
2023-08-10T08:25:27.005Z,936.00
2023-08-10T08:26:27.242Z,864.00
2023-08-10T08:27:27.428Z,972.00
2023-08-10T08:28:27.649Z,928.00
2023-08-10T08:29:27.796Z,936.00
2023-08-10T08:30:27.968Z,956.00
2023-08-10T08:31:28.263Z,960.00
2023-08-10T08:32:37.354Z,988.00
2023-08-10T08:33:29.553Z,996.00
2023-08-10T08:34:28.695Z,996.00
2023-08-10T08:35:28.851Z,1028.00
2023-08-10T08:36:29.059Z,1060.00
2023-08-10T08:37:29.304Z,1200.00
2023-08-10T08:38:29.400Z,1240.00
2023-08-10T08:39:29.646Z,1012.00
2023-08-10T08:40:29.804Z,1252.00
2023-08-10T08:41:29.971Z,1328.00
2023-08-10T08:42:30.158Z,1348.00
2023-08-10T08:43:30.308Z,1368.00
2023-08-10T08:44:32.401Z,1316.00
2023-08-10T08:45:30.710Z,1216.00
2023-08-10T08:46:30.952Z,1184.00
2023-08-10T08:47:31.161Z,1268.00
2023-08-10T08:48:31.286Z,1160.00
2023-08-10T08:49:31.427Z,1124.00
2023-08-10T08:50:33.020Z,1012.00
2023-08-10T08:51:31.849Z,1232.00
2023-08-10T08:52:32.027Z,1156.00
2023-08-10T08:53:32.182Z,1512.00
2023-08-10T08:54:32.367Z,1576.00
2023-08-10T08:55:32.580Z,1324.00
2023-08-10T08:56:33.249Z,1444.00
2023-08-10T08:57:32.924Z,1292.00
2023-08-10T08:58:33.110Z,1356.00
2023-08-10T08:59:33.307Z,1544.00
2023-08-10T09:00:33.515Z,1516.00
2023-08-10T09:01:33.747Z,1404.00
2023-08-10T09:02:34.249Z,1316.00
2023-08-10T09:03:34.289Z,1420.00
2023-08-10T09:04:34.255Z,1508.00
2023-08-10T09:05:34.422Z,1504.00
2023-08-10T09:06:34.596Z,1520.00
2023-08-10T09:07:34.797Z,1432.00
2023-08-10T09:08:35.001Z,1384.00
2023-08-10T09:09:35.137Z,1432.00
2023-08-10T09:10:35.339Z,1488.00
2023-08-10T09:11:35.534Z,1608.00
2023-08-10T09:12:35.749Z,1904.00
2023-08-10T09:13:35.915Z,1888.00
2023-08-10T09:14:36.081Z,1460.00
2023-08-10T09:15:36.271Z,1352.00
2023-08-10T09:16:36.467Z,1700.00
2023-08-10T09:17:36.665Z,1388.00
2023-08-10T09:18:36.857Z,1088.00
2023-08-10T09:19:37.015Z,1120.00
2023-08-10T09:20:37.243Z,1040.00
2023-08-10T09:21:37.356Z,1076.00
2023-08-10T09:22:37.554Z,1028.00
2023-08-10T09:23:37.751Z,1132.00
2023-08-10T09:24:37.973Z,1420.00
2023-08-10T09:25:39.348Z,1252.00
2023-08-10T09:26:38.348Z,1144.00
2023-08-10T09:27:38.515Z,892.00
2023-08-10T09:28:38.758Z,872.00
2023-08-10T09:29:39.395Z,968.00
2023-08-10T09:30:39.080Z,1508.00
2023-08-10T09:31:39.273Z,1608.00
2023-08-10T09:32:39.490Z,1744.00
2023-08-10T09:33:39.626Z,1864.00
2023-08-10T09:34:39.841Z,1900.00
2023-08-10T09:35:40.019Z,1680.00
2023-08-10T09:36:40.147Z,2044.00
2023-08-10T09:37:40.360Z,1596.00
2023-08-10T09:38:40.533Z,2124.00
2023-08-10T09:39:40.758Z,2084.00
2023-08-10T09:40:40.890Z,1384.00
2023-08-10T09:41:41.097Z,1464.00
2023-08-10T09:42:41.274Z,1424.00
2023-08-10T09:43:41.429Z,1332.00
2023-08-10T09:44:41.642Z,1288.00
2023-08-10T09:45:41.869Z,1292.00
2023-08-10T09:46:42.057Z,1260.00
2023-08-10T09:47:42.289Z,1284.00
2023-08-10T09:48:42.405Z,1356.00
2023-08-10T09:49:42.628Z,1396.00
2023-08-10T09:50:42.777Z,1432.00
2023-08-10T09:51:42.997Z,2580.00
2023-08-10T09:52:43.153Z,2220.00
2023-08-10T09:53:43.349Z,1452.00
2023-08-10T09:54:43.540Z,1440.00
2023-08-10T09:55:43.689Z,1824.00
2023-08-10T09:56:43.903Z,1312.00
2023-08-10T09:57:44.142Z,1180.00
2023-08-10T09:58:44.258Z,1132.00
2023-08-10T09:59:44.467Z,1148.00
2023-08-10T10:00:44.665Z,1136.00
2023-08-10T10:01:44.908Z,1188.00
2023-08-10T10:02:45.082Z,1376.00
2023-08-10T10:03:45.697Z,1240.00
2023-08-10T10:04:45.439Z,1516.00
2023-08-10T10:05:45.654Z,3464.00
2023-08-10T10:06:45.761Z,1236.00
2023-08-10T10:07:45.938Z,1300.00
2023-08-10T10:08:46.155Z,5976.00
2023-08-10T10:09:46.365Z,9408.00
2023-08-10T10:10:46.528Z,8648.00
2023-08-10T10:11:46.718Z,8356.00
2023-08-10T10:12:46.860Z,7744.00
2023-08-10T10:13:47.068Z,6924.00
2023-08-10T10:14:47.211Z,4092.00
2023-08-10T10:15:47.466Z,5836.00
2023-08-10T10:16:47.601Z,4424.00
2023-08-10T10:17:47.847Z,3628.00
2023-08-10T10:18:47.947Z,3412.00
2023-08-10T10:19:48.133Z,3224.00
2023-08-10T10:20:48.345Z,3164.00
2023-08-10T10:21:48.528Z,3260.00
2023-08-10T10:22:48.676Z,3408.00
2023-08-10T10:23:48.839Z,3440.00
2023-08-10T10:24:49.060Z,3356.00
2023-08-10T10:25:49.197Z,2976.00
2023-08-10T10:26:49.414Z,2852.00
2023-08-10T10:27:49.578Z,2664.00
2023-08-10T10:28:49.763Z,984.00
2023-08-10T10:29:49.927Z,888.00
2023-08-10T10:30:50.175Z,2856.00
2023-08-10T10:31:50.314Z,2980.00
2023-08-10T10:32:50.522Z,2592.00
2023-08-10T10:33:50.646Z,2316.00
2023-08-10T10:34:50.840Z,2508.00
2023-08-10T10:35:51.042Z,2496.00
2023-08-10T10:36:51.208Z,2512.00
2023-08-10T10:37:51.405Z,2484.00
2023-08-10T10:38:51.598Z,2492.00
2023-08-10T10:39:51.786Z,2464.00
2023-08-10T10:40:51.935Z,2448.00
2023-08-10T10:41:52.150Z,2492.00
2023-08-10T10:42:52.325Z,2528.00
2023-08-10T10:43:52.486Z,2584.00
2023-08-10T10:44:52.654Z,2508.00
2023-08-10T10:45:52.946Z,2260.00
2023-08-10T10:46:53.048Z,1816.00
2023-08-10T10:47:53.260Z,2264.00
2023-08-10T10:48:53.420Z,2304.00
2023-08-10T10:49:53.586Z,2260.00
2023-08-10T10:50:53.739Z,2272.00
2023-08-10T10:51:54.116Z,2312.00
2023-08-10T10:52:54.204Z,2316.00
2023-08-10T10:53:54.319Z,2336.00
2023-08-10T10:54:54.469Z,2348.00
2023-08-10T10:55:54.646Z,2336.00
2023-08-10T10:56:54.846Z,2352.00
2023-08-10T10:57:55.014Z,2392.00
2023-08-10T10:58:55.160Z,2432.00
2023-08-10T10:59:55.354Z,2452.00
2023-08-10T11:00:55.539Z,2412.00
2023-08-10T11:01:55.825Z,2356.00
2023-08-10T11:02:55.908Z,2332.00
2023-08-10T11:03:56.123Z,2332.00
2023-08-10T11:04:56.307Z,2328.00
2023-08-10T11:05:57.375Z,2372.00
2023-08-10T11:06:56.655Z,2392.00
2023-08-10T11:07:56.868Z,2436.00
2023-08-10T11:08:57.048Z,2468.00
2023-08-10T11:09:57.178Z,1232.00
2023-08-10T11:10:57.341Z,1248.00
2023-08-10T11:11:57.563Z,2460.00
2023-08-10T11:12:59.407Z,2392.00
2023-08-10T11:13:57.936Z,2380.00
2023-08-10T11:14:58.138Z,2380.00
2023-08-10T11:15:58.353Z,2392.00
2023-08-10T11:16:59.367Z,2392.00
2023-08-10T11:17:58.727Z,2408.00
2023-08-10T11:18:58.894Z,2416.00
2023-08-10T11:19:59.033Z,2412.00
2023-08-10T11:20:59.211Z,2460.00
2023-08-10T11:21:59.457Z,2520.00
2023-08-10T11:22:59.591Z,2588.00
2023-08-10T11:23:59.808Z,2628.00
2023-08-10T11:24:59.967Z,1920.00
2023-08-10T11:26:00.228Z,2776.00
2023-08-10T11:27:00.375Z,1056.00
2023-08-10T11:28:00.531Z,1088.00
2023-08-10T11:29:00.776Z,1076.00
2023-08-10T11:30:10.146Z,1340.00
2023-08-10T11:31:01.122Z,1164.00
2023-08-10T11:32:01.337Z,2288.00
2023-08-10T11:33:01.506Z,1104.00
2023-08-10T11:34:01.686Z,1068.00
2023-08-10T11:35:01.889Z,1028.00
2023-08-10T11:36:02.033Z,1204.00
2023-08-10T11:37:02.165Z,3108.00
2023-08-10T11:38:02.349Z,1372.00
2023-08-10T11:39:02.528Z,1412.00
2023-08-10T11:40:02.752Z,1384.00
2023-08-10T11:41:04.811Z,1520.00
2023-08-10T11:42:03.096Z,3060.00
2023-08-10T11:43:03.275Z,3116.00
2023-08-10T11:44:03.472Z,1748.00
2023-08-10T11:45:03.632Z,2356.00
2023-08-10T11:46:03.827Z,1340.00
2023-08-10T11:47:04.206Z,1348.00
2023-08-10T11:48:04.977Z,1448.00
2023-08-10T11:49:04.348Z,1624.00
2023-08-10T11:50:04.527Z,1636.00
2023-08-10T11:51:04.652Z,1636.00
2023-08-10T11:52:05.218Z,3504.00
2023-08-10T11:53:05.037Z,1452.00
2023-08-10T11:54:05.253Z,1420.00
2023-08-10T11:55:05.444Z,1420.00
2023-08-10T11:56:05.597Z,1400.00
2023-08-10T11:57:05.972Z,1456.00
2023-08-10T11:58:06.501Z,3244.00
2023-08-10T11:59:06.158Z,1680.00
2023-08-10T12:00:06.387Z,3352.00
2023-08-10T12:01:06.545Z,1416.00
2023-08-10T12:02:06.704Z,1360.00
2023-08-10T12:03:06.914Z,2064.00
2023-08-10T12:04:07.147Z,3212.00
2023-08-10T12:05:07.331Z,1208.00
2023-08-10T12:06:08.186Z,1196.00
2023-08-10T12:07:08.048Z,1212.00
2023-08-10T12:08:07.835Z,1272.00
2023-08-10T12:09:08.110Z,1284.00
2023-08-10T12:10:08.260Z,1248.00
2023-08-10T12:11:08.408Z,1260.00
2023-08-10T12:12:08.664Z,1292.00
2023-08-10T12:13:08.790Z,1332.00
2023-08-10T12:14:09.010Z,2980.00
2023-08-10T12:15:09.214Z,3392.00
2023-08-10T12:16:09.390Z,3380.00
2023-08-10T12:17:09.561Z,3300.00
2023-08-10T12:18:09.848Z,1840.00
2023-08-10T12:19:09.929Z,3416.00
2023-08-10T12:20:10.089Z,3044.00
2023-08-10T12:21:10.274Z,3072.00
2023-08-10T12:22:10.715Z,3300.00
2023-08-10T12:23:10.632Z,3248.00
2023-08-10T12:24:10.781Z,3236.00
2023-08-10T12:25:10.968Z,3220.00
2023-08-10T12:26:11.165Z,3192.00
2023-08-10T12:27:11.356Z,3212.00
2023-08-10T12:28:11.504Z,3188.00
2023-08-10T12:29:12.446Z,2896.00
2023-08-10T12:30:11.876Z,3168.00
2023-08-10T12:31:12.042Z,3188.00
2023-08-10T12:32:13.026Z,3264.00
2023-08-10T12:33:12.399Z,3260.00
2023-08-10T12:34:12.606Z,2996.00
2023-08-10T12:35:12.801Z,3088.00
2023-08-10T12:36:12.985Z,3236.00
2023-08-10T12:37:13.152Z,3340.00
2023-08-10T12:38:13.343Z,3368.00
2023-08-10T12:39:13.592Z,3332.00
2023-08-10T12:40:13.713Z,3148.00